sensor_id;sensor_type;location;lat;lon;timestamp;P1;durP1;ratioP1;P2;durP2;ratioP2
57155;SDS011;73771;59.928;10.682;2024-02-16T00:00:26;0.20;;;0.20;;
57155;SDS011;73771;59.928;10.682;2024-02-16T00:02:53;0.20;;;0.20;;
57155;SDS011;73771;59.928;10.682;2024-02-16T00:05:19;0.30;;;0.30;;
57155;SDS011;73771;59.928;10.682;2024-02-16T00:07:45;0.20;;;0.20;;
57155;SDS011;73771;59.928;10.682;2024-02-16T00:10:11;0.20;;;0.20;;
57155;SDS011;73771;59.928;10.682;2024-02-16T00:12:37;0.15;;;0.15;;
57155;SDS011;73771;59.928;10.682;2024-02-16T00:15:05;0.10;;;0.10;;
57155;SDS011;73771;59.928;10.682;2024-02-16T00:17:31;0.10;;;0.10;;
57155;SDS011;73771;59.928;10.682;2024-02-16T00:19:58;0.28;;;0.10;;
57155;SDS011;73771;59.928;10.682;2024-02-16T00:22:24;0.10;;;0.10;;
57155;SDS011;73771;59.928;10.682;2024-02-16T00:24:51;0.25;;;0.20;;
57155;SDS011;73771;59.928;10.682;2024-02-16T00:27:17;0.25;;;0.13;;
57155;SDS011;73771;59.928;10.682;2024-02-16T00:29:43;0.10;;;0.10;;
57155;SDS011;73771;59.928;10.682;2024-02-16T00:32:11;0.10;;;0.10;;
57155;SDS011;73771;59.928;10.682;2024-02-16T00:34:37;0.15;;;0.15;;
57155;SDS011;73771;59.928;10.682;2024-02-16T00:37:06;0.20;;;0.20;;
57155;SDS011;73771;59.928;10.682;2024-02-16T00:39:37;0.15;;;0.15;;
57155;SDS011;73771;59.928;10.682;2024-02-16T00:42:05;0.10;;;0.10;;
57155;SDS011;73771;59.928;10.682;2024-02-16T00:44:31;0.20;;;0.10;;
57155;SDS011;73771;59.928;10.682;2024-02-16T00:46:57;0.15;;;0.15;;
57155;SDS011;73771;59.928;10.682;2024-02-16T00:49:23;0.10;;;0.10;;
57155;SDS011;73771;59.928;10.682;2024-02-16T00:51:49;0.20;;;0.20;;
57155;SDS011;73771;59.928;10.682;2024-02-16T00:54:16;0.20;;;0.10;;
57155;SDS011;73771;59.928;10.682;2024-02-16T00:56:42;0.13;;;0.13;;
57155;SDS011;73771;59.928;10.682;2024-02-16T00:59:08;0.10;;;0.10;;
57155;SDS011;73771;59.928;10.682;2024-02-16T01:01:35;0.15;;;0.15;;
57155;SDS011;73771;59.928;10.682;2024-02-16T01:04:01;0.28;;;0.20;;
57155;SDS011;73771;59.928;10.682;2024-02-16T01:06:28;0.13;;;0.13;;
57155;SDS011;73771;59.928;10.682;2024-02-16T01:08:54;0.10;;;0.10;;
57155;SDS011;73771;59.928;10.682;2024-02-16T01:11:21;0.10;;;0.10;;
57155;SDS011;73771;59.928;10.682;2024-02-16T01:13:47;0.55;;;0.10;;
57155;SDS011;73771;59.928;10.682;2024-02-16T01:16:14;0.10;;;0.10;;
57155;SDS011;73771;59.928;10.682;2024-02-16T01:18:42;0.20;;;0.20;;
57155;SDS011;73771;59.928;10.682;2024-02-16T01:21:08;0.10;;;0.10;;
57155;SDS011;73771;59.928;10.682;2024-02-16T01:23:35;0.10;;;0.10;;
57155;SDS011;73771;59.928;10.682;2024-02-16T01:26:01;0.10;;;0.10;;
57155;SDS011;73771;59.928;10.682;2024-02-16T01:28:27;0.10;;;0.10;;
57155;SDS011;73771;59.928;10.682;2024-02-16T01:30:53;0.68;;;0.20;;
57155;SDS011;73771;59.928;10.682;2024-02-16T01:33:21;0.10;;;0.10;;
57155;SDS011;73771;59.928;10.682;2024-02-16T01:35:47;0.10;;;0.10;;
57155;SDS011;73771;59.928;10.682;2024-02-16T01:38:13;0.10;;;0.10;;
57155;SDS011;73771;59.928;10.682;2024-02-16T01:40:39;0.15;;;0.15;;
57155;SDS011;73771;59.928;10.682;2024-02-16T01:43:06;0.20;;;0.20;;
57155;SDS011;73771;59.928;10.682;2024-02-16T01:45:32;0.10;;;0.10;;
57155;SDS011;73771;59.928;10.682;2024-02-16T01:47:58;0.10;;;0.10;;
57155;SDS011;73771;59.928;10.682;2024-02-16T01:50:24;0.10;;;0.10;;
57155;SDS011;73771;59.928;10.682;2024-02-16T01:52:50;0.20;;;0.20;;
57155;SDS011;73771;59.928;10.682;2024-02-16T01:55:18;0.10;;;0.10;;
57155;SDS011;73771;59.928;10.682;2024-02-16T01:57:46;0.10;;;0.10;;
57155;SDS011;73771;59.928;10.682;2024-02-16T02:00:13;0.20;;;0.10;;
57155;SDS011;73771;59.928;10.682;2024-02-16T02:02:48;0.08;;;0.08;;
57155;SDS011;73771;59.928;10.682;2024-02-16T02:05:15;0.00;;;0.00;;
57155;SDS011;73771;59.928;10.682;2024-02-16T02:07:41;0.13;;;0.10;;
57155;SDS011;73771;59.928;10.682;2024-02-16T02:10:08;0.10;;;0.10;;
57155;SDS011;73771;59.928;10.682;2024-02-16T02:12:35;0.00;;;0.00;;
57155;SDS011;73771;59.928;10.682;2024-02-16T02:15:01;0.47;;;0.10;;
57155;SDS011;73771;59.928;10.682;2024-02-16T02:17:28;0.10;;;0.10;;
57155;SDS011;73771;59.928;10.682;2024-02-16T02:19:54;0.00;;;0.00;;
57155;SDS011;73771;59.928;10.682;2024-02-16T02:22:20;0.13;;;0.10;;
57155;SDS011;73771;59.928;10.682;2024-02-16T02:24:47;0.17;;;0.17;;
57155;SDS011;73771;59.928;10.682;2024-02-16T02:27:14;0.10;;;0.10;;
57155;SDS011;73771;59.928;10.682;2024-02-16T02:29:40;0.10;;;0.10;;
57155;SDS011;73771;59.928;10.682;2024-02-16T02:32:07;0.10;;;0.10;;
57155;SDS011;73771;59.928;10.682;2024-02-16T02:34:33;0.10;;;0.10;;
57155;SDS011;73771;59.928;10.682;2024-02-16T02:37:01;0.10;;;0.10;;
57155;SDS011;73771;59.928;10.682;2024-02-16T02:39:29;0.00;;;0.00;;
57155;SDS011;73771;59.928;10.682;2024-02-16T02:41:55;0.20;;;0.03;;
57155;SDS011;73771;59.928;10.682;2024-02-16T02:44:22;0.10;;;0.10;;
57155;SDS011;73771;59.928;10.682;2024-02-16T02:46:49;0.10;;;0.10;;
57155;SDS011;73771;59.928;10.682;2024-02-16T02:49:15;0.20;;;0.10;;
57155;SDS011;73771;59.928;10.682;2024-02-16T02:51:41;0.25;;;0.10;;
57155;SDS011;73771;59.928;10.682;2024-02-16T02:54:07;0.00;;;0.00;;
57155;SDS011;73771;59.928;10.682;2024-02-16T02:56:33;0.00;;;0.00;;
57155;SDS011;73771;59.928;10.682;2024-02-16T02:58:59;0.20;;;0.10;;
57155;SDS011;73771;59.928;10.682;2024-02-16T03:04:20;0.10;;;0.10;;
57155;SDS011;73771;59.928;10.682;2024-02-16T03:06:47;0.03;;;0.03;;
57155;SDS011;73771;59.928;10.682;2024-02-16T03:09:13;0.00;;;0.00;;
57155;SDS011;73771;59.928;10.682;2024-02-16T03:11:39;0.35;;;0.20;;
57155;SDS011;73771;59.928;10.682;2024-02-16T03:14:06;0.22;;;0.00;;
57155;SDS011;73771;59.928;10.682;2024-02-16T03:16:33;0.10;;;0.05;;
57155;SDS011;73771;59.928;10.682;2024-02-16T03:18:59;0.00;;;0.00;;
57155;SDS011;73771;59.928;10.682;2024-02-16T03:21:25;0.15;;;0.15;;
57155;SDS011;73771;59.928;10.682;2024-02-16T03:23:52;0.10;;;0.10;;
57155;SDS011;73771;59.928;10.682;2024-02-16T03:26:18;0.05;;;0.00;;
57155;SDS011;73771;59.928;10.682;2024-02-16T03:28:48;0.20;;;0.10;;
57155;SDS011;73771;59.928;10.682;2024-02-16T03:31:21;0.05;;;0.05;;
57155;SDS011;73771;59.928;10.682;2024-02-16T03:33:48;0.17;;;0.10;;
57155;SDS011;73771;59.928;10.682;2024-02-16T03:36:14;0.00;;;0.00;;
57155;SDS011;73771;59.928;10.682;2024-02-16T03:38:42;0.00;;;0.00;;
57155;SDS011;73771;59.928;10.682;2024-02-16T03:41:19;0.10;;;0.10;;
57155;SDS011;73771;59.928;10.682;2024-02-16T03:43:46;0.10;;;0.10;;
57155;SDS011;73771;59.928;10.682;2024-02-16T03:46:12;0.00;;;0.00;;
57155;SDS011;73771;59.928;10.682;2024-02-16T03:48:38;0.00;;;0.00;;
57155;SDS011;73771;59.928;10.682;2024-02-16T03:51:05;0.00;;;0.00;;
57155;SDS011;73771;59.928;10.682;2024-02-16T03:53:32;0.10;;;0.10;;
57155;SDS011;73771;59.928;10.682;2024-02-16T03:55:58;0.00;;;0.00;;
57155;SDS011;73771;59.928;10.682;2024-02-16T03:58:25;0.00;;;0.00;;
57155;SDS011;73771;59.928;10.682;2024-02-16T04:00:51;0.00;;;0.00;;
57155;SDS011;73771;59.928;10.682;2024-02-16T04:03:18;0.00;;;0.00;;
57155;SDS011;73771;59.928;10.682;2024-02-16T04:05:44;0.00;;;0.00;;
57155;SDS011;73771;59.928;10.682;2024-02-16T04:08:10;0.20;;;0.10;;
57155;SDS011;73771;59.928;10.682;2024-02-16T04:10:36;0.50;;;0.00;;
57155;SDS011;73771;59.928;10.682;2024-02-16T04:13:03;0.08;;;0.08;;
57155;SDS011;73771;59.928;10.682;2024-02-16T04:15:29;0.03;;;0.03;;
57155;SDS011;73771;59.928;10.682;2024-02-16T04:17:55;0.10;;;0.10;;
57155;SDS011;73771;59.928;10.682;2024-02-16T04:20:21;0.00;;;0.00;;
57155;SDS011;73771;59.928;10.682;2024-02-16T04:22:48;0.00;;;0.00;;
57155;SDS011;73771;59.928;10.682;2024-02-16T04:25:14;0.00;;;0.00;;
57155;SDS011;73771;59.928;10.682;2024-02-16T04:27:40;0.10;;;0.10;;
57155;SDS011;73771;59.928;10.682;2024-02-16T04:30:06;0.08;;;0.00;;
57155;SDS011;73771;59.928;10.682;2024-02-16T04:32:32;0.00;;;0.00;;
57155;SDS011;73771;59.928;10.682;2024-02-16T04:34:58;0.00;;;0.00;;
57155;SDS011;73771;59.928;10.682;2024-02-16T04:37:25;0.00;;;0.00;;
57155;SDS011;73771;59.928;10.682;2024-02-16T04:39:51;0.10;;;0.00;;
57155;SDS011;73771;59.928;10.682;2024-02-16T04:42:18;0.10;;;0.10;;
57155;SDS011;73771;59.928;10.682;2024-02-16T04:44:44;1.55;;;0.17;;
57155;SDS011;73771;59.928;10.682;2024-02-16T04:47:10;0.00;;;0.00;;
57155;SDS011;73771;59.928;10.682;2024-02-16T04:49:36;0.00;;;0.00;;
57155;SDS011;73771;59.928;10.682;2024-02-16T04:52:02;0.00;;;0.00;;
57155;SDS011;73771;59.928;10.682;2024-02-16T04:54:28;0.10;;;0.10;;
57155;SDS011;73771;59.928;10.682;2024-02-16T04:56:55;0.20;;;0.20;;
57155;SDS011;73771;59.928;10.682;2024-02-16T04:59:21;0.10;;;0.10;;
57155;SDS011;73771;59.928;10.682;2024-02-16T05:01:47;0.10;;;0.00;;
57155;SDS011;73771;59.928;10.682;2024-02-16T05:04:13;0.20;;;0.20;;
57155;SDS011;73771;59.928;10.682;2024-02-16T05:06:45;0.08;;;0.00;;
57155;SDS011;73771;59.928;10.682;2024-02-16T05:09:11;0.05;;;0.00;;
57155;SDS011;73771;59.928;10.682;2024-02-16T05:11:41;0.65;;;0.28;;
57155;SDS011;73771;59.928;10.682;2024-02-16T05:14:07;0.25;;;0.00;;
57155;SDS011;73771;59.928;10.682;2024-02-16T05:16:34;0.10;;;0.10;;
57155;SDS011;73771;59.928;10.682;2024-02-16T05:19:00;0.08;;;0.08;;
57155;SDS011;73771;59.928;10.682;2024-02-16T05:21:26;0.63;;;0.10;;
57155;SDS011;73771;59.928;10.682;2024-02-16T05:23:52;0.00;;;0.00;;
57155;SDS011;73771;59.928;10.682;2024-02-16T05:26:18;0.00;;;0.00;;
57155;SDS011;73771;59.928;10.682;2024-02-16T05:28:45;0.20;;;0.20;;
57155;SDS011;73771;59.928;10.682;2024-02-16T05:31:15;0.13;;;0.13;;
57155;SDS011;73771;59.928;10.682;2024-02-16T05:33:43;0.05;;;0.05;;
57155;SDS011;73771;59.928;10.682;2024-02-16T05:36:09;0.17;;;0.10;;
57155;SDS011;73771;59.928;10.682;2024-02-16T05:38:36;0.10;;;0.10;;
57155;SDS011;73771;59.928;10.682;2024-02-16T05:41:06;0.00;;;0.00;;
57155;SDS011;73771;59.928;10.682;2024-02-16T05:43:33;0.10;;;0.10;;
57155;SDS011;73771;59.928;10.682;2024-02-16T05:45:59;0.00;;;0.00;;
57155;SDS011;73771;59.928;10.682;2024-02-16T05:48:25;0.00;;;0.00;;
57155;SDS011;73771;59.928;10.682;2024-02-16T05:50:56;0.10;;;0.10;;
57155;SDS011;73771;59.928;10.682;2024-02-16T05:53:25;0.22;;;0.00;;
57155;SDS011;73771;59.928;10.682;2024-02-16T05:55:51;0.08;;;0.08;;
57155;SDS011;73771;59.928;10.682;2024-02-16T05:58:17;0.10;;;0.10;;
57155;SDS011;73771;59.928;10.682;2024-02-16T06:00:43;0.10;;;0.10;;
57155;SDS011;73771;59.928;10.682;2024-02-16T06:03:12;0.15;;;0.10;;
57155;SDS011;73771;59.928;10.682;2024-02-16T06:05:38;0.20;;;0.20;;
57155;SDS011;73771;59.928;10.682;2024-02-16T06:08:06;0.13;;;0.13;;
57155;SDS011;73771;59.928;10.682;2024-02-16T06:10:32;0.10;;;0.10;;
57155;SDS011;73771;59.928;10.682;2024-02-16T06:12:59;0.00;;;0.00;;
57155;SDS011;73771;59.928;10.682;2024-02-16T06:15:25;0.00;;;0.00;;
57155;SDS011;73771;59.928;10.682;2024-02-16T06:17:51;0.10;;;0.10;;
57155;SDS011;73771;59.928;10.682;2024-02-16T06:20:18;0.10;;;0.10;;
57155;SDS011;73771;59.928;10.682;2024-02-16T06:22:44;0.15;;;0.10;;
57155;SDS011;73771;59.928;10.682;2024-02-16T06:25:10;0.30;;;0.10;;
57155;SDS011;73771;59.928;10.682;2024-02-16T06:27:36;0.10;;;0.10;;
57155;SDS011;73771;59.928;10.682;2024-02-16T06:30:03;0.10;;;0.10;;
57155;SDS011;73771;59.928;10.682;2024-02-16T06:32:29;0.10;;;0.10;;
57155;SDS011;73771;59.928;10.682;2024-02-16T06:34:56;0.00;;;0.00;;
57155;SDS011;73771;59.928;10.682;2024-02-16T06:37:22;0.30;;;0.00;;
57155;SDS011;73771;59.928;10.682;2024-02-16T06:39:48;0.05;;;0.05;;
57155;SDS011;73771;59.928;10.682;2024-02-16T06:42:14;0.63;;;0.25;;
57155;SDS011;73771;59.928;10.682;2024-02-16T06:44:41;0.10;;;0.10;;
57155;SDS011;73771;59.928;10.682;2024-02-16T06:47:07;0.30;;;0.15;;
57155;SDS011;73771;59.928;10.682;2024-02-16T06:49:33;0.10;;;0.10;;
57155;SDS011;73771;59.928;10.682;2024-02-16T06:51:59;0.10;;;0.10;;
57155;SDS011;73771;59.928;10.682;2024-02-16T06:54:25;0.50;;;0.28;;
57155;SDS011;73771;59.928;10.682;2024-02-16T06:56:51;0.00;;;0.00;;
57155;SDS011;73771;59.928;10.682;2024-02-16T06:59:18;0.32;;;0.20;;
57155;SDS011;73771;59.928;10.682;2024-02-16T07:01:44;0.15;;;0.15;;
57155;SDS011;73771;59.928;10.682;2024-02-16T07:04:10;0.20;;;0.20;;
57155;SDS011;73771;59.928;10.682;2024-02-16T07:06:36;0.25;;;0.10;;
57155;SDS011;73771;59.928;10.682;2024-02-16T07:09:03;0.10;;;0.10;;
57155;SDS011;73771;59.928;10.682;2024-02-16T07:11:29;0.38;;;0.15;;
57155;SDS011;73771;59.928;10.682;2024-02-16T07:13:55;0.10;;;0.10;;
57155;SDS011;73771;59.928;10.682;2024-02-16T07:16:21;0.10;;;0.03;;
57155;SDS011;73771;59.928;10.682;2024-02-16T07:18:47;0.10;;;0.10;;
57155;SDS011;73771;59.928;10.682;2024-02-16T07:21:13;0.10;;;0.10;;
57155;SDS011;73771;59.928;10.682;2024-02-16T07:23:41;0.10;;;0.10;;
57155;SDS011;73771;59.928;10.682;2024-02-16T07:26:07;0.20;;;0.20;;
57155;SDS011;73771;59.928;10.682;2024-02-16T07:28:33;0.10;;;0.10;;
57155;SDS011;73771;59.928;10.682;2024-02-16T07:30:59;0.30;;;0.30;;
57155;SDS011;73771;59.928;10.682;2024-02-16T07:33:25;0.65;;;0.10;;
57155;SDS011;73771;59.928;10.682;2024-02-16T07:35:53;0.20;;;0.20;;
57155;SDS011;73771;59.928;10.682;2024-02-16T07:38:19;0.15;;;0.10;;
57155;SDS011;73771;59.928;10.682;2024-02-16T07:40:47;0.10;;;0.10;;
57155;SDS011;73771;59.928;10.682;2024-02-16T07:43:15;0.10;;;0.10;;
57155;SDS011;73771;59.928;10.682;2024-02-16T07:45:41;0.10;;;0.10;;
57155;SDS011;73771;59.928;10.682;2024-02-16T07:48:08;0.32;;;0.10;;
57155;SDS011;73771;59.928;10.682;2024-02-16T07:50:34;0.52;;;0.20;;
57155;SDS011;73771;59.928;10.682;2024-02-16T07:53:00;0.20;;;0.20;;
57155;SDS011;73771;59.928;10.682;2024-02-16T07:55:26;0.45;;;0.10;;
57155;SDS011;73771;59.928;10.682;2024-02-16T07:57:52;0.22;;;0.13;;
57155;SDS011;73771;59.928;10.682;2024-02-16T08:00:18;0.10;;;0.10;;
57155;SDS011;73771;59.928;10.682;2024-02-16T08:02:44;0.10;;;0.10;;
57155;SDS011;73771;59.928;10.682;2024-02-16T08:05:14;0.20;;;0.20;;
57155;SDS011;73771;59.928;10.682;2024-02-16T08:07:41;0.10;;;0.10;;
57155;SDS011;73771;59.928;10.682;2024-02-16T08:10:07;0.20;;;0.20;;
57155;SDS011;73771;59.928;10.682;2024-02-16T08:12:34;0.30;;;0.20;;
57155;SDS011;73771;59.928;10.682;2024-02-16T08:15:01;0.35;;;0.35;;
57155;SDS011;73771;59.928;10.682;2024-02-16T08:17:29;0.43;;;0.13;;
57155;SDS011;73771;59.928;10.682;2024-02-16T08:19:55;0.10;;;0.10;;
57155;SDS011;73771;59.928;10.682;2024-02-16T08:22:21;0.13;;;0.13;;
57155;SDS011;73771;59.928;10.682;2024-02-16T08:24:48;0.10;;;0.10;;
57155;SDS011;73771;59.928;10.682;2024-02-16T08:27:15;0.25;;;0.25;;
57155;SDS011;73771;59.928;10.682;2024-02-16T08:29:41;1.27;;;0.30;;
57155;SDS011;73771;59.928;10.682;2024-02-16T08:32:07;0.22;;;0.22;;
57155;SDS011;73771;59.928;10.682;2024-02-16T08:34:34;0.25;;;0.25;;
57155;SDS011;73771;59.928;10.682;2024-02-16T08:37:02;0.43;;;0.22;;
57155;SDS011;73771;59.928;10.682;2024-02-16T08:39:29;0.30;;;0.17;;
57155;SDS011;73771;59.928;10.682;2024-02-16T08:41:58;0.10;;;0.10;;
57155;SDS011;73771;59.928;10.682;2024-02-16T08:44:25;0.15;;;0.10;;
57155;SDS011;73771;59.928;10.682;2024-02-16T08:46:51;0.77;;;0.30;;
57155;SDS011;73771;59.928;10.682;2024-02-16T08:49:18;0.10;;;0.10;;
57155;SDS011;73771;59.928;10.682;2024-02-16T08:51:44;0.25;;;0.15;;
57155;SDS011;73771;59.928;10.682;2024-02-16T08:54:10;0.20;;;0.20;;
57155;SDS011;73771;59.928;10.682;2024-02-16T08:56:37;0.50;;;0.20;;
57155;SDS011;73771;59.928;10.682;2024-02-16T08:59:04;0.25;;;0.13;;
57155;SDS011;73771;59.928;10.682;2024-02-16T09:01:34;0.20;;;0.20;;
57155;SDS011;73771;59.928;10.682;2024-02-16T09:04:01;0.22;;;0.10;;
57155;SDS011;73771;59.928;10.682;2024-02-16T09:06:27;0.43;;;0.20;;
57155;SDS011;73771;59.928;10.682;2024-02-16T09:08:53;0.30;;;0.30;;
57155;SDS011;73771;59.928;10.682;2024-02-16T09:11:20;0.47;;;0.10;;
57155;SDS011;73771;59.928;10.682;2024-02-16T09:13:46;0.43;;;0.20;;
57155;SDS011;73771;59.928;10.682;2024-02-16T09:16:13;0.20;;;0.20;;
57155;SDS011;73771;59.928;10.682;2024-02-16T09:18:39;0.20;;;0.20;;
57155;SDS011;73771;59.928;10.682;2024-02-16T09:21:05;0.28;;;0.10;;
57155;SDS011;73771;59.928;10.682;2024-02-16T09:23:32;0.32;;;0.13;;
57155;SDS011;73771;59.928;10.682;2024-02-16T09:25:58;0.10;;;0.10;;
57155;SDS011;73771;59.928;10.682;2024-02-16T09:28:25;0.10;;;0.10;;
57155;SDS011;73771;59.928;10.682;2024-02-16T09:30:51;0.80;;;0.20;;
57155;SDS011;73771;59.928;10.682;2024-02-16T09:33:17;0.50;;;0.20;;
57155;SDS011;73771;59.928;10.682;2024-02-16T09:35:43;0.15;;;0.15;;
57155;SDS011;73771;59.928;10.682;2024-02-16T09:38:09;0.65;;;0.20;;
57155;SDS011;73771;59.928;10.682;2024-02-16T09:40:35;0.55;;;0.30;;
57155;SDS011;73771;59.928;10.682;2024-02-16T09:43:02;0.30;;;0.30;;
57155;SDS011;73771;59.928;10.682;2024-02-16T09:45:28;0.20;;;0.20;;
57155;SDS011;73771;59.928;10.682;2024-02-16T09:47:54;0.20;;;0.20;;
57155;SDS011;73771;59.928;10.682;2024-02-16T09:50:21;0.55;;;0.22;;
57155;SDS011;73771;59.928;10.682;2024-02-16T09:52:48;0.30;;;0.15;;
57155;SDS011;73771;59.928;10.682;2024-02-16T09:55:15;0.10;;;0.10;;
57155;SDS011;73771;59.928;10.682;2024-02-16T09:57:41;0.80;;;0.25;;
57155;SDS011;73771;59.928;10.682;2024-02-16T10:00:08;1.95;;;0.15;;
57155;SDS011;73771;59.928;10.682;2024-02-16T10:02:44;0.20;;;0.20;;
57155;SDS011;73771;59.928;10.682;2024-02-16T10:05:17;0.10;;;0.10;;
57155;SDS011;73771;59.928;10.682;2024-02-16T10:07:45;0.15;;;0.10;;
57155;SDS011;73771;59.928;10.682;2024-02-16T10:10:20;0.30;;;0.20;;
57155;SDS011;73771;59.928;10.682;2024-02-16T10:12:47;0.25;;;0.13;;
57155;SDS011;73771;59.928;10.682;2024-02-16T10:15:20;0.30;;;0.20;;
57155;SDS011;73771;59.928;10.682;2024-02-16T10:18:02;0.20;;;0.20;;
57155;SDS011;73771;59.928;10.682;2024-02-16T10:20:29;0.20;;;0.20;;
57155;SDS011;73771;59.928;10.682;2024-02-16T10:25:31;0.28;;;0.28;;
57155;SDS011;73771;59.928;10.682;2024-02-16T10:27:57;0.20;;;0.20;;
57155;SDS011;73771;59.928;10.682;2024-02-16T10:30:30;0.20;;;0.20;;
57155;SDS011;73771;59.928;10.682;2024-02-16T10:32:57;0.35;;;0.30;;
57155;SDS011;73771;59.928;10.682;2024-02-16T10:35:24;0.32;;;0.32;;
57155;SDS011;73771;59.928;10.682;2024-02-16T10:37:51;0.20;;;0.20;;
57155;SDS011;73771;59.928;10.682;2024-02-16T10:40:19;0.20;;;0.20;;
57155;SDS011;73771;59.928;10.682;2024-02-16T10:42:45;0.20;;;0.20;;
57155;SDS011;73771;59.928;10.682;2024-02-16T10:45:12;0.35;;;0.35;;
57155;SDS011;73771;59.928;10.682;2024-02-16T10:47:41;0.40;;;0.20;;
57155;SDS011;73771;59.928;10.682;2024-02-16T10:50:07;0.22;;;0.22;;
57155;SDS011;73771;59.928;10.682;2024-02-16T10:52:34;0.90;;;0.17;;
57155;SDS011;73771;59.928;10.682;2024-02-16T10:55:02;0.28;;;0.22;;
57155;SDS011;73771;59.928;10.682;2024-02-16T10:57:30;0.32;;;0.30;;
57155;SDS011;73771;59.928;10.682;2024-02-16T10:59:58;0.40;;;0.20;;
57155;SDS011;73771;59.928;10.682;2024-02-16T11:02:24;0.45;;;0.20;;
57155;SDS011;73771;59.928;10.682;2024-02-16T11:04:52;0.30;;;0.20;;
57155;SDS011;73771;59.928;10.682;2024-02-16T11:07:19;0.43;;;0.30;;
57155;SDS011;73771;59.928;10.682;2024-02-16T11:09:45;0.35;;;0.30;;
57155;SDS011;73771;59.928;10.682;2024-02-16T11:12:13;0.50;;;0.20;;
57155;SDS011;73771;59.928;10.682;2024-02-16T11:14:47;0.30;;;0.20;;
57155;SDS011;73771;59.928;10.682;2024-02-16T11:17:21;0.52;;;0.20;;
57155;SDS011;73771;59.928;10.682;2024-02-16T11:19:48;0.30;;;0.30;;
57155;SDS011;73771;59.928;10.682;2024-02-16T11:22:17;0.10;;;0.10;;
57155;SDS011;73771;59.928;10.682;2024-02-16T11:24:44;0.30;;;0.30;;
57155;SDS011;73771;59.928;10.682;2024-02-16T11:27:11;0.17;;;0.17;;
57155;SDS011;73771;59.928;10.682;2024-02-16T11:29:38;0.20;;;0.20;;
57155;SDS011;73771;59.928;10.682;2024-02-16T11:32:05;0.35;;;0.20;;
57155;SDS011;73771;59.928;10.682;2024-02-16T11:34:31;0.32;;;0.30;;
57155;SDS011;73771;59.928;10.682;2024-02-16T11:36:59;0.30;;;0.28;;
57155;SDS011;73771;59.928;10.682;2024-02-16T11:39:25;0.30;;;0.30;;
57155;SDS011;73771;59.928;10.682;2024-02-16T11:42:11;0.55;;;0.30;;
57155;SDS011;73771;59.928;10.682;2024-02-16T11:44:38;0.20;;;0.20;;
57155;SDS011;73771;59.928;10.682;2024-02-16T11:47:05;0.20;;;0.20;;
57155;SDS011;73771;59.928;10.682;2024-02-16T11:49:40;0.68;;;0.40;;
57155;SDS011;73771;59.928;10.682;2024-02-16T11:52:09;0.30;;;0.30;;
57155;SDS011;73771;59.928;10.682;2024-02-16T11:54:36;0.30;;;0.30;;
57155;SDS011;73771;59.928;10.682;2024-02-16T11:57:02;0.25;;;0.25;;
57155;SDS011;73771;59.928;10.682;2024-02-16T11:59:29;0.20;;;0.20;;
57155;SDS011;73771;59.928;10.682;2024-02-16T12:01:59;0.25;;;0.25;;
57155;SDS011;73771;59.928;10.682;2024-02-16T12:04:26;0.55;;;0.30;;
57155;SDS011;73771;59.928;10.682;2024-02-16T12:06:54;0.30;;;0.30;;
57155;SDS011;73771;59.928;10.682;2024-02-16T12:09:21;0.28;;;0.28;;
57155;SDS011;73771;59.928;10.682;2024-02-16T12:11:48;0.50;;;0.30;;
57155;SDS011;73771;59.928;10.682;2024-02-16T12:14:15;0.35;;;0.28;;
57155;SDS011;73771;59.928;10.682;2024-02-16T12:16:42;0.32;;;0.32;;
57155;SDS011;73771;59.928;10.682;2024-02-16T12:19:08;0.20;;;0.20;;
57155;SDS011;73771;59.928;10.682;2024-02-16T12:21:36;0.20;;;0.20;;
57155;SDS011;73771;59.928;10.682;2024-02-16T12:24:04;0.43;;;0.30;;
57155;SDS011;73771;59.928;10.682;2024-02-16T12:26:30;1.40;;;0.28;;
57155;SDS011;73771;59.928;10.682;2024-02-16T12:28:56;0.40;;;0.30;;
57155;SDS011;73771;59.928;10.682;2024-02-16T12:31:22;0.20;;;0.20;;
57155;SDS011;73771;59.928;10.682;2024-02-16T12:33:51;0.30;;;0.30;;
57155;SDS011;73771;59.928;10.682;2024-02-16T12:36:17;0.38;;;0.30;;
57155;SDS011;73771;59.928;10.682;2024-02-16T12:38:43;0.22;;;0.22;;
57155;SDS011;73771;59.928;10.682;2024-02-16T12:41:09;0.20;;;0.20;;
57155;SDS011;73771;59.928;10.682;2024-02-16T12:43:36;0.30;;;0.30;;
57155;SDS011;73771;59.928;10.682;2024-02-16T12:46:02;0.40;;;0.40;;
57155;SDS011;73771;59.928;10.682;2024-02-16T12:48:29;0.45;;;0.40;;
57155;SDS011;73771;59.928;10.682;2024-02-16T12:50:55;0.20;;;0.20;;
57155;SDS011;73771;59.928;10.682;2024-02-16T12:53:23;0.50;;;0.38;;
57155;SDS011;73771;59.928;10.682;2024-02-16T12:55:55;0.30;;;0.30;;
57155;SDS011;73771;59.928;10.682;2024-02-16T12:58:21;0.68;;;0.68;;
57155;SDS011;73771;59.928;10.682;2024-02-16T13:00:47;0.30;;;0.30;;
57155;SDS011;73771;59.928;10.682;2024-02-16T13:03:13;0.57;;;0.57;;
57155;SDS011;73771;59.928;10.682;2024-02-16T13:05:39;0.30;;;0.30;;
57155;SDS011;73771;59.928;10.682;2024-02-16T13:08:08;0.30;;;0.20;;
57155;SDS011;73771;59.928;10.682;2024-02-16T13:10:34;0.40;;;0.40;;
57155;SDS011;73771;59.928;10.682;2024-02-16T13:13:00;0.65;;;0.20;;
57155;SDS011;73771;59.928;10.682;2024-02-16T13:15:26;0.70;;;0.30;;
57155;SDS011;73771;59.928;10.682;2024-02-16T13:17:52;0.50;;;0.50;;
57155;SDS011;73771;59.928;10.682;2024-02-16T13:20:19;0.43;;;0.30;;
57155;SDS011;73771;59.928;10.682;2024-02-16T13:22:45;0.80;;;0.40;;
57155;SDS011;73771;59.928;10.682;2024-02-16T13:25:11;0.77;;;0.60;;
57155;SDS011;73771;59.928;10.682;2024-02-16T13:27:37;0.40;;;0.30;;
57155;SDS011;73771;59.928;10.682;2024-02-16T13:30:03;0.30;;;0.30;;
57155;SDS011;73771;59.928;10.682;2024-02-16T13:32:32;0.20;;;0.20;;
57155;SDS011;73771;59.928;10.682;2024-02-16T13:34:58;0.40;;;0.40;;
57155;SDS011;73771;59.928;10.682;2024-02-16T13:37:24;0.52;;;0.40;;
57155;SDS011;73771;59.928;10.682;2024-02-16T13:39:50;0.43;;;0.40;;
57155;SDS011;73771;59.928;10.682;2024-02-16T13:42:16;0.50;;;0.38;;
57155;SDS011;73771;59.928;10.682;2024-02-16T13:44:43;1.50;;;0.70;;
57155;SDS011;73771;59.928;10.682;2024-02-16T13:47:09;0.57;;;0.40;;
57155;SDS011;73771;59.928;10.682;2024-02-16T13:49:36;0.93;;;0.40;;
57155;SDS011;73771;59.928;10.682;2024-02-16T13:52:02;0.38;;;0.38;;
57155;SDS011;73771;59.928;10.682;2024-02-16T13:54:28;0.60;;;0.60;;
57155;SDS011;73771;59.928;10.682;2024-02-16T13:56:54;1.05;;;0.40;;
57155;SDS011;73771;59.928;10.682;2024-02-16T13:59:20;3.30;;;0.85;;
57155;SDS011;73771;59.928;10.682;2024-02-16T14:01:47;0.40;;;0.40;;
57155;SDS011;73771;59.928;10.682;2024-02-16T14:04:14;0.40;;;0.40;;
57155;SDS011;73771;59.928;10.682;2024-02-16T14:06:40;0.82;;;0.60;;
57155;SDS011;73771;59.928;10.682;2024-02-16T14:09:06;1.67;;;0.57;;
57155;SDS011;73771;59.928;10.682;2024-02-16T14:11:36;0.55;;;0.50;;
57155;SDS011;73771;59.928;10.682;2024-02-16T14:14:02;1.00;;;0.50;;
57155;SDS011;73771;59.928;10.682;2024-02-16T14:16:28;0.75;;;0.70;;
57155;SDS011;73771;59.928;10.682;2024-02-16T14:18:55;0.55;;;0.35;;
57155;SDS011;73771;59.928;10.682;2024-02-16T14:21:21;0.57;;;0.57;;
57155;SDS011;73771;59.928;10.682;2024-02-16T14:23:48;1.15;;;0.75;;
57155;SDS011;73771;59.928;10.682;2024-02-16T14:26:14;1.40;;;0.40;;
57155;SDS011;73771;59.928;10.682;2024-02-16T14:28:40;0.73;;;0.60;;
57155;SDS011;73771;59.928;10.682;2024-02-16T14:31:06;1.02;;;0.63;;
57155;SDS011;73771;59.928;10.682;2024-02-16T14:33:32;0.70;;;0.50;;
57155;SDS011;73771;59.928;10.682;2024-02-16T14:35:59;0.38;;;0.38;;